Time;durP1;ratioP1;P1;durP2;ratioP2;P2;SDS_P1;SDS_P2;PMS_P1;PMS_P2;Temp;Humidity;BMP_temperature;BMP_pressure;BME280_temperature;BME280_humidity;BME280_pressure;Samples;Min_cycle;Max_cycle;Signal;HPM_P1;HPM_P2
2021/08/25 00:00:25;;;;;;;3.28;1.30;;;13.30;99.90;;;;;;10379602;28;20107;-67
2021/08/25 00:05:27;;;;;;;2.42;1.00;;;13.30;99.90;;;;;;10367336;28;20136;-67
2021/08/25 00:10:28;;;;;;;2.75;1.13;;;13.20;99.90;;;;;;10370923;28;20115;-67
2021/08/25 00:15:30;;;;;;;3.72;1.00;;;13.20;99.90;;;;;;10368235;28;20045;-67
2021/08/25 00:20:32;;;;;;;3.25;1.35;;;13.20;99.90;;;;;;10375267;28;20141;-67
2021/08/25 00:25:34;;;;;;;2.80;1.30;;;13.10;99.90;;;;;;10370740;28;20053;-67
2021/08/25 00:30:35;;;;;;;2.88;1.02;;;13.10;99.90;;;;;;10371875;28;20053;-67
2021/08/25 00:35:37;;;;;;;8.32;1.45;;;13.00;99.90;;;;;;10368502;28;20052;-67
2021/08/25 00:40:39;;;;;;;2.92;1.40;;;13.00;99.90;;;;;;10363759;28;20046;-67
2021/08/25 00:45:42;;;;;;;2.20;1.13;;;12.90;99.90;;;;;;10371126;28;20108;-67
2021/08/25 00:50:51;;;;;;;3.60;1.52;;;12.90;99.90;;;;;;10366552;28;20547;-67
2021/08/25 00:55:54;;;;;;;4.78;1.75;;;12.90;99.90;;;;;;10365954;28;20470;-67
2021/08/25 01:01:03;;;;;;;3.20;1.00;;;12.80;99.90;;;;;;10371484;28;20118;-67
2021/08/25 01:12:20;;;;;;;3.47;1.17;;;12.70;99.90;;;;;;10369795;28;20042;-67
2021/08/25 01:17:24;;;;;;;4.63;1.30;;;12.60;99.90;;;;;;10367203;28;20127;-67
2021/08/25 01:22:26;;;;;;;4.43;1.38;;;12.50;99.90;;;;;;10366276;28;20480;-67
2021/08/25 01:27:29;;;;;;;3.05;1.00;;;12.50;99.90;;;;;;10367984;28;20310;-67
2021/08/25 01:32:35;;;;;;;3.83;1.50;;;12.50;99.90;;;;;;10371071;28;20084;-67
2021/08/25 01:37:36;;;;;;;2.40;0.90;;;12.40;99.90;;;;;;10364806;28;20050;-67
2021/08/25 01:42:38;;;;;;;5.22;1.63;;;12.30;99.90;;;;;;10366297;28;20083;-67
2021/08/25 01:47:40;;;;;;;3.22;1.50;;;12.20;99.90;;;;;;10362569;28;20061;-67
2021/08/25 01:52:42;;;;;;;2.90;1.10;;;12.20;99.90;;;;;;10363875;28;20816;-67
2021/08/25 01:57:44;;;;;;;2.58;1.27;;;12.10;99.90;;;;;;10366675;28;20061;-67
2021/08/25 02:02:46;;;;;;;3.05;1.25;;;12.00;99.90;;;;;;10364496;28;20046;-67
2021/08/25 02:07:48;;;;;;;5.22;1.38;;;12.10;99.90;;;;;;10362352;28;20549;-67
2021/08/25 02:12:49;;;;;;;2.22;1.02;;;12.00;99.90;;;;;;10365786;28;20081;-67
2021/08/25 02:17:51;;;;;;;11.45;1.58;;;12.00;99.90;;;;;;10363934;28;20511;-67
2021/08/25 02:22:53;;;;;;;2.88;1.10;;;12.00;99.90;;;;;;10364031;28;20717;-67
2021/08/25 02:27:55;;;;;;;5.40;1.70;;;12.00;99.90;;;;;;10363518;28;20412;-66
2021/08/25 02:32:57;;;;;;;4.13;1.55;;;11.90;99.90;;;;;;10365081;28;20042;-67
2021/08/25 02:37:59;;;;;;;3.35;1.33;;;11.90;99.90;;;;;;10366762;28;20119;-67
2021/08/25 02:43:01;;;;;;;5.85;1.77;;;11.90;99.90;;;;;;10366439;28;20053;-67
2021/08/25 02:48:02;;;;;;;6.20;1.92;;;11.80;99.90;;;;;;10360646;28;20053;-67
2021/08/25 02:53:04;;;;;;;4.00;1.55;;;11.80;99.90;;;;;;10364420;28;20124;-67
2021/08/25 02:58:06;;;;;;;12.20;1.20;;;11.70;99.90;;;;;;10367559;28;20111;-67
2021/08/25 03:03:07;;;;;;;3.10;1.05;;;11.70;99.90;;;;;;10366137;28;20053;-67
2021/08/25 03:08:09;;;;;;;6.90;1.02;;;11.60;99.90;;;;;;10364118;28;20060;-67
2021/08/25 03:13:11;;;;;;;3.35;1.25;;;11.60;99.90;;;;;;10362609;28;20054;-67
2021/08/25 03:18:13;;;;;;;4.68;1.98;;;11.60;99.90;;;;;;10358920;28;20041;-67
2021/08/25 03:23:14;;;;;;;5.45;1.30;;;11.50;99.90;;;;;;10360657;28;20547;-67
2021/08/25 03:28:16;;;;;;;5.13;1.40;;;11.50;99.90;;;;;;10370048;28;20120;-67
2021/08/25 03:33:18;;;;;;;3.22;0.85;;;11.40;99.90;;;;;;10363161;28;20119;-67
2021/08/25 03:38:19;;;;;;;10.25;1.70;;;11.40;99.90;;;;;;10358937;28;20069;-67
2021/08/25 03:43:21;;;;;;;5.85;1.10;;;11.30;99.90;;;;;;10363895;28;20142;-67
2021/08/25 03:48:23;;;;;;;5.60;1.35;;;11.30;99.90;;;;;;10364886;28;20139;-67
2021/08/25 03:53:24;;;;;;;4.35;1.20;;;11.30;99.90;;;;;;10364327;28;20081;-67
2021/08/25 03:58:26;;;;;;;3.40;1.02;;;11.30;99.90;;;;;;10362816;28;20045;-67
2021/08/25 04:03:28;;;;;;;3.08;1.00;;;11.30;99.90;;;;;;10361021;28;20052;-67
2021/08/25 04:08:30;;;;;;;3.75;1.30;;;11.30;99.90;;;;;;10365375;28;20104;-67
2021/08/25 04:13:31;;;;;;;5.07;1.00;;;11.30;99.90;;;;;;10360819;28;20081;-67
2021/08/25 04:18:33;;;;;;;3.25;1.10;;;11.30;99.90;;;;;;10360989;28;20543;-67
2021/08/25 04:23:35;;;;;;;4.50;0.82;;;11.30;99.90;;;;;;10362599;28;20535;-68
2021/08/25 04:28:38;;;;;;;1.63;0.82;;;11.30;99.90;;;;;;10368293;28;20100;-66
2021/08/25 04:33:39;;;;;;;4.35;1.05;;;11.30;99.90;;;;;;10367940;28;20615;-65
2021/08/25 04:38:41;;;;;;;4.03;1.17;;;11.30;99.90;;;;;;10372096;28;20103;-65
2021/08/25 04:43:43;;;;;;;3.08;0.93;;;11.40;99.90;;;;;;10368254;28;20079;-65
2021/08/25 04:48:45;;;;;;;6.15;1.02;;;11.40;99.90;;;;;;10365312;28;20053;-65
2021/08/25 04:53:47;;;;;;;3.17;1.42;;;11.40;99.90;;;;;;10369785;28;20384;-65
2021/08/25 04:58:48;;;;;;;2.22;0.90;;;11.40;99.90;;;;;;10371629;28;20411;-65
2021/08/25 05:03:50;;;;;;;3.95;0.95;;;11.50;99.90;;;;;;10365543;28;20073;-66
2021/08/25 05:08:52;;;;;;;2.58;1.10;;;11.50;99.90;;;;;;10371924;28;20099;-66
2021/08/25 05:13:53;;;;;;;2.50;1.35;;;11.60;99.90;;;;;;10368313;28;20095;-66
2021/08/25 05:18:55;;;;;;;4.65;0.90;;;11.70;99.90;;;;;;10368300;28;20136;-66
2021/08/25 05:23:57;;;;;;;6.47;1.25;;;11.80;99.90;;;;;;10366743;28;20436;-68
2021/08/25 05:28:58;;;;;;;4.32;1.02;;;11.80;99.90;;;;;;10364784;28;20115;-68
2021/08/25 05:34:00;;;;;;;4.80;1.13;;;11.90;99.90;;;;;;10366659;28;20053;-68
2021/08/25 05:39:02;;;;;;;6.43;0.70;;;12.00;99.90;;;;;;10367807;28;20042;-69
2021/08/25 05:44:04;;;;;;;3.45;1.05;;;12.00;99.90;;;;;;10368671;28;20049;-68
2021/08/25 05:49:06;;;;;;;3.28;0.80;;;12.10;99.90;;;;;;10360725;28;20483;-68
2021/08/25 05:54:09;;;;;;;3.67;0.98;;;12.20;99.90;;;;;;10371792;28;20100;-68
2021/08/25 05:59:10;;;;;;;3.10;1.15;;;12.30;99.90;;;;;;10369993;28;20050;-68
2021/08/25 06:04:12;;;;;;;6.32;1.15;;;12.40;99.90;;;;;;10366944;28;20073;-68
2021/08/25 06:09:14;;;;;;;6.53;0.77;;;12.60;99.90;;;;;;10365608;28;20098;-68
2021/08/25 06:14:16;;;;;;;2.42;1.63;;;12.80;99.90;;;;;;10359744;28;20124;-68
2021/08/25 06:19:17;;;;;;;5.43;0.88;;;12.90;99.90;;;;;;10362960;28;20057;-68
2021/08/25 06:24:19;;;;;;;5.18;0.80;;;13.10;99.90;;;;;;10367859;28;20179;-67
2021/08/25 06:29:21;;;;;;;3.03;0.93;;;13.30;99.90;;;;;;10363120;28;20077;-68
2021/08/25 06:34:22;;;;;;;2.85;0.80;;;13.50;99.90;;;;;;10365897;28;20497;-68
2021/08/25 06:39:24;;;;;;;2.08;0.75;;;13.70;99.90;;;;;;10367375;28;20124;-68
2021/08/25 06:44:26;;;;;;;9.10;1.23;;;13.90;99.90;;;;;;10367089;28;20053;-68
2021/08/25 06:49:28;;;;;;;4.55;0.88;;;14.10;99.90;;;;;;10361457;28;20045;-68
2021/08/25 06:54:29;;;;;;;1.92;0.80;;;14.30;99.90;;;;;;10365056;28;20579;-68
2021/08/25 06:59:31;;;;;;;2.65;0.90;;;14.50;99.90;;;;;;10362045;28;20080;-68
2021/08/25 07:04:33;;;;;;;2.75;0.88;;;14.70;99.90;;;;;;10369033;28;20741;-69
2021/08/25 07:09:34;;;;;;;2.58;0.80;;;14.80;99.90;;;;;;10369004;28;20057;-69
2021/08/25 07:14:36;;;;;;;4.72;0.75;;;14.90;99.90;;;;;;10366218;28;20077;-69
2021/08/25 07:19:41;;;;;;;4.43;1.00;;;15.10;99.90;;;;;;10362147;28;20115;-69
2021/08/25 07:24:43;;;;;;;3.35;0.85;;;15.30;99.90;;;;;;10371459;28;20057;-69
2021/08/25 07:29:45;;;;;;;2.88;0.70;;;15.40;99.90;;;;;;10364139;28;20054;-69
2021/08/25 07:34:46;;;;;;;4.20;0.70;;;15.50;99.90;;;;;;10366989;28;20046;-68
2021/08/25 07:39:48;;;;;;;2.15;1.00;;;15.70;99.90;;;;;;10359407;28;20049;-68
2021/08/25 07:44:50;;;;;;;2.10;0.70;;;15.90;99.90;;;;;;10367512;28;20141;-67
2021/08/25 07:49:52;;;;;;;2.90;0.80;;;16.00;99.90;;;;;;10359715;28;20434;-69
2021/08/25 07:54:53;;;;;;;2.97;1.13;;;16.20;99.90;;;;;;10363915;28;20080;-69
2021/08/25 07:59:55;;;;;;;4.18;1.10;;;16.30;99.90;;;;;;10365025;28;20104;-68
2021/08/25 08:04:56;;;;;;;2.92;1.10;;;16.40;99.90;;;;;;10370019;28;20049;-69
2021/08/25 08:09:58;;;;;;;4.10;1.13;;;16.50;99.90;;;;;;10373188;28;20041;-69
2021/08/25 08:15:00;;;;;;;4.75;1.10;;;16.70;99.90;;;;;;10369309;28;20107;-69
2021/08/25 08:20:03;;;;;;;2.25;0.80;;;16.90;99.90;;;;;;10374183;28;20187;-68
2021/08/25 08:25:06;;;;;;;3.05;1.05;;;17.00;99.90;;;;;;10369893;28;20042;-68
2021/08/25 08:30:08;;;;;;;8.50;0.80;;;17.20;99.90;;;;;;10367253;28;20054;-68
2021/08/25 08:35:10;;;;;;;2.28;0.88;;;17.30;99.90;;;;;;10369293;28;20955;-69
2021/08/25 08:40:12;;;;;;;2.58;0.80;;;17.50;99.90;;;;;;10369781;28;20429;-69
2021/08/25 08:45:16;;;;;;;1.88;1.00;;;17.70;99.90;;;;;;10366380;28;20042;-69
2021/08/25 08:50:18;;;;;;;2.78;1.17;;;17.80;99.90;;;;;;10363459;28;20055;-69
2021/08/25 08:55:20;;;;;;;2.55;1.40;;;18.00;99.90;;;;;;10366341;28;20115;-69
2021/08/25 09:00:22;;;;;;;3.90;1.13;;;18.20;99.90;;;;;;10361109;28;20647;-69
2021/08/25 09:05:26;;;;;;;2.63;0.77;;;18.20;99.90;;;;;;10368577;28;20081;-69
2021/08/25 09:10:29;;;;;;;4.85;0.90;;;18.40;99.90;;;;;;10373192;28;20369;-67
2021/08/25 09:15:41;;;;;;;2.45;0.73;;;18.60;99.90;;;;;;10366977;28;20038;-68
2021/08/25 09:20:48;;;;;;;4.88;0.88;;;18.80;99.90;;;;;;10368345;28;20056;-68
2021/08/25 09:25:59;;;;;;;7.23;1.50;;;19.00;99.90;;;;;;10366999;28;20049;-69
2021/08/25 09:31:11;;;;;;;1.70;0.73;;;19.20;99.90;;;;;;10380162;28;20296;-69
2021/08/25 09:36:19;;;;;;;3.92;1.10;;;19.40;99.90;;;;;;10371443;28;20041;-69
2021/08/25 09:41:21;;;;;;;2.38;1.10;;;19.60;99.90;;;;;;10365070;28;20099;-67
2021/08/25 09:46:25;;;;;;;4.15;1.40;;;19.60;99.90;;;;;;10361894;28;20049;-68
2021/08/25 09:51:38;;;;;;;2.50;1.02;;;19.70;98.40;;;;;;10375209;28;20045;-68
2021/08/25 09:56:41;;;;;;;2.60;1.13;;;19.80;97.90;;;;;;10364624;28;20103;-68
2021/08/25 10:01:43;;;;;;;2.67;1.00;;;19.90;98.00;;;;;;10365831;28;20116;-68
2021/08/25 10:06:47;;;;;;;2.20;1.08;;;19.90;96.60;;;;;;10366047;28;20058;-68
2021/08/25 10:11:56;;;;;;;2.40;0.90;;;20.10;95.90;;;;;;10366957;28;20045;-68
2021/08/25 10:16:58;;;;;;;6.53;1.00;;;20.30;96.90;;;;;;10365412;28;20050;-69
2021/08/25 10:22:15;;;;;;;2.50;1.10;;;20.50;94.60;;;;;;10368313;28;20544;-69
2021/08/25 10:27:17;;;;;;;3.35;1.13;;;20.70;93.10;;;;;;10356620;28;20381;-68
2021/08/25 10:32:18;;;;;;;2.10;0.75;;;21.00;94.20;;;;;;10361373;28;20045;-69
2021/08/25 10:37:28;;;;;;;3.80;1.10;;;21.20;93.70;;;;;;10365313;28;20071;-69
2021/08/25 10:43:00;;;;;;;5.00;0.90;;;21.50;91.70;;;;;;10356494;28;20072;-68
2021/08/25 10:48:02;;;;;;;4.05;1.40;;;21.20;90.30;;;;;;10370018;28;20053;-69
2021/08/25 10:53:29;;;;;;;2.47;1.00;;;21.50;90.10;;;;;;10350733;28;20096;-69
2021/08/25 10:58:47;;;;;;;3.20;1.10;;;21.70;90.60;;;;;;10357525;28;20443;-69
2021/08/25 11:03:49;;;;;;;2.97;0.90;;;22.00;89.10;;;;;;10360158;28;20073;-70
2021/08/25 11:08:51;;;;;;;4.18;1.08;;;22.30;88.70;;;;;;10360933;28;20054;-70
2021/08/25 11:13:52;;;;;;;4.90;0.70;;;22.30;84.40;;;;;;10356765;28;20049;-69
2021/08/25 11:18:54;;;;;;;2.58;0.93;;;22.40;84.40;;;;;;10368202;28;20538;-69
2021/08/25 11:23:57;;;;;;;2.75;0.70;;;22.00;85.70;;;;;;10358664;28;20114;-69
2021/08/25 11:28:58;;;;;;;2.00;0.70;;;22.30;86.20;;;;;;10359459;28;20103;-68
2021/08/25 11:34:01;;;;;;;2.20;1.02;;;22.30;85.40;;;;;;10365074;28;20050;-66
2021/08/25 11:39:12;;;;;;;3.95;0.90;;;22.30;81.90;;;;;;10366572;28;20061;-72
2021/08/25 11:44:14;;;;;;;5.93;1.13;;;22.40;81.00;;;;;;10369127;28;20511;-71
2021/08/25 11:49:16;;;;;;;3.28;1.45;;;22.60;81.10;;;;;;10368250;28;20061;-65
2021/08/25 11:54:18;;;;;;;6.35;0.90;;;22.60;82.50;;;;;;10365403;28;20104;-67
2021/08/25 11:59:21;;;;;;;2.55;1.10;;;22.90;78.30;;;;;;10372647;28;20041;-65
2021/08/25 12:04:26;;;;;;;2.55;0.98;;;22.90;80.30;;;;;;10365331;28;20042;-65
2021/08/25 12:09:34;;;;;;;1.77;1.20;;;23.20;78.10;;;;;;10370364;28;20103;-66
2021/08/25 12:14:53;;;;;;;5.68;0.90;;;23.30;78.80;;;;;;10370042;28;20053;-66
2021/08/25 12:19:57;;;;;;;2.83;1.30;;;23.60;77.30;;;;;;10367378;28;20045;-65
2021/08/25 12:24:59;;;;;;;4.53;1.13;;;23.60;76.40;;;;;;10370949;28;20045;-65
2021/08/25 12:30:11;;;;;;;6.35;1.08;;;23.60;77.30;;;;;;10367879;28;20049;-65
2021/08/25 12:35:23;;;;;;;4.38;0.80;;;23.60;74.50;;;;;;10364617;28;20057;-65
2021/08/25 12:40:26;;;;;;;4.35;0.90;;;23.50;75.10;;;;;;10362214;28;20095;-66
2021/08/25 12:45:27;;;;;;;3.03;1.08;;;23.80;72.80;;;;;;10365774;28;20080;-65
2021/08/25 12:50:29;;;;;;;2.17;0.90;;;23.80;71.20;;;;;;10361838;28;20053;-66
2021/08/25 12:55:31;;;;;;;1.75;0.70;;;23.80;71.50;;;;;;10369679;28;20053;-66
2021/08/25 13:00:38;;;;;;;2.80;1.00;;;23.80;72.20;;;;;;10366257;28;20058;-66
2021/08/25 13:05:40;;;;;;;3.00;1.02;;;24.30;73.30;;;;;;10365647;28;20045;-66
2021/08/25 13:10:41;;;;;;;4.35;0.90;;;23.70;72.50;;;;;;10364959;28;20195;-65
2021/08/25 13:15:44;;;;;;;2.63;1.00;;;23.50;71.30;;;;;;10367676;28;20057;-66
2021/08/25 13:20:46;;;;;;;3.25;0.82;;;23.10;71.00;;;;;;10362683;28;20585;-66
2021/08/25 13:25:56;;;;;;;4.05;0.90;;;23.60;71.60;;;;;;10366188;28;20047;-66
2021/08/25 13:30:58;;;;;;;3.83;0.90;;;23.90;70.90;;;;;;10327801;28;1035715;-66
2021/08/25 13:36:00;;;;;;;2.03;0.70;;;24.00;70.90;;;;;;10367227;28;20062;-66
2021/08/25 13:41:03;;;;;;;2.35;1.00;;;23.60;73.50;;;;;;10371900;28;20045;-65
2021/08/25 13:46:04;;;;;;;3.72;0.95;;;24.00;73.00;;;;;;10366196;28;20163;-65
2021/08/25 13:51:09;;;;;;;2.25;1.05;;;24.20;71.90;;;;;;10366375;28;20045;-65
2021/08/25 13:56:10;;;;;;;2.58;1.10;;;24.40;67.50;;;;;;10365717;28;20544;-64
2021/08/25 14:01:12;;;;;;;2.50;0.65;;;24.60;67.40;;;;;;10364389;28;20123;-65
2021/08/25 14:06:15;;;;;;;1.92;0.90;;;24.70;69.30;;;;;;10368427;28;20050;-66
2021/08/25 14:11:17;;;;;;;2.90;0.82;;;25.10;68.20;;;;;;10365446;28;20066;-65
2021/08/25 14:16:18;;;;;;;3.28;1.42;;;25.70;66.60;;;;;;10364719;28;20045;-66
2021/08/25 14:21:20;;;;;;;2.70;1.00;;;25.70;64.80;;;;;;10360887;28;20552;-66
2021/08/25 14:26:22;;;;;;;2.53;0.90;;;26.30;62.20;;;;;;10366701;28;20180;-67
2021/08/25 14:31:24;;;;;;;3.63;0.80;;;26.10;63.40;;;;;;10361029;28;20852;-67
2021/08/25 14:36:26;;;;;;;7.30;0.75;;;26.90;63.60;;;;;;10367624;28;20136;-67
2021/08/25 14:41:27;;;;;;;2.88;0.88;;;27.40;61.40;;;;;;10364078;28;20049;-66
2021/08/25 14:46:29;;;;;;;1.85;0.85;;;27.70;59.60;;;;;;10364038;28;20054;-67
2021/08/25 14:51:31;;;;;;;1.83;0.90;;;28.10;60.80;;;;;;10365692;28;20883;-65
2021/08/25 14:56:33;;;;;;;3.80;0.90;;;28.20;57.00;;;;;;10367357;28;20651;-66
2021/08/25 15:01:34;;;;;;;1.65;0.98;;;27.50;58.20;;;;;;10362405;28;20054;-66
2021/08/25 15:06:39;;;;;;;2.40;0.70;;;27.50;58.50;;;;;;10367981;28;20053;-65
2021/08/25 15:11:41;;;;;;;1.33;0.65;;;27.60;58.50;;;;;;10362934;28;20045;-64
2021/08/25 15:16:43;;;;;;;3.70;0.80;;;27.40;59.00;;;;;;10360502;28;20060;-64
2021/08/25 15:21:45;;;;;;;3.90;0.70;;;27.60;56.60;;;;;;10357515;28;20108;-70
2021/08/25 15:26:47;;;;;;;2.97;0.90;;;27.00;60.40;;;;;;10352093;28;20065;-68
2021/08/25 15:31:52;;;;;;;3.00;1.00;;;27.30;60.70;;;;;;10363537;28;20128;-69
2021/08/25 15:36:54;;;;;;;2.05;1.00;;;27.00;61.20;;;;;;10359057;28;20116;-69
2021/08/25 15:41:55;;;;;;;4.07;1.42;;;26.70;59.50;;;;;;10360301;28;20099;-70
2021/08/25 15:46:57;;;;;;;2.33;1.23;;;26.40;61.10;;;;;;10355216;28;20049;-69
2021/08/25 15:51:59;;;;;;;2.15;1.10;;;26.00;63.30;;;;;;10360644;28;20123;-70
2021/08/25 15:57:02;;;;;;;2.42;1.40;;;26.10;62.10;;;;;;10359393;28;20049;-70
2021/08/25 16:02:04;;;;;;;2.50;1.17;;;26.00;59.00;;;;;;10354753;28;20050;-69
2021/08/25 16:07:06;;;;;;;4.43;1.30;;;25.90;57.00;;;;;;10358032;28;20127;-70
2021/08/25 16:12:09;;;;;;;3.47;1.63;;;26.00;58.00;;;;;;10360203;28;20076;-69
2021/08/25 16:17:10;;;;;;;3.88;1.70;;;25.80;58.50;;;;;;10359357;28;20056;-70
2021/08/25 16:22:12;;;;;;;4.75;1.88;;;25.90;58.50;;;;;;10361018;28;20052;-68
2021/08/25 16:27:14;;;;;;;2.78;1.30;;;25.60;60.50;;;;;;10370813;28;20103;-70
2021/08/25 16:32:15;;;;;;;6.20;1.40;;;25.30;60.10;;;;;;10368412;28;20100;-68
2021/08/25 16:37:17;;;;;;;4.15;1.45;;;25.10;61.20;;;;;;10367249;28;20570;-70
2021/08/25 16:42:20;;;;;;;3.60;1.55;;;24.90;61.00;;;;;;10370601;28;20046;-69
2021/08/25 16:47:22;;;;;;;3.92;1.33;;;24.60;62.50;;;;;;10362982;28;20050;-69
2021/08/25 16:52:23;;;;;;;4.65;1.50;;;24.30;61.80;;;;;;10365455;28;20057;-69
2021/08/25 16:57:27;;;;;;;4.93;1.58;;;24.10;62.50;;;;;;10367807;28;20199;-69
2021/08/25 17:02:29;;;;;;;2.90;1.42;;;24.20;62.80;;;;;;10365848;28;20054;-69
2021/08/25 17:07:31;;;;;;;5.28;1.55;;;24.10;62.40;;;;;;10372617;28;20045;-69
2021/08/25 17:12:33;;;;;;;4.60;1.58;;;23.90;63.70;;;;;;10366882;28;20881;-69
2021/08/25 17:17:35;;;;;;;2.95;1.15;;;23.70;64.40;;;;;;10365030;28;20045;-68
2021/08/25 17:22:36;;;;;;;4.55;1.80;;;23.40;65.00;;;;;;10372236;28;20096;-70
2021/08/25 17:27:38;;;;;;;4.68;1.63;;;23.20;66.40;;;;;;10362682;28;20049;-66
2021/08/25 17:32:43;;;;;;;4.55;1.63;;;23.00;67.00;;;;;;10363115;28;20465;-66
2021/08/25 17:37:45;;;;;;;5.72;1.42;;;22.70;68.00;;;;;;10365411;28;20114;-66
2021/08/25 17:42:46;;;;;;;5.72;1.67;;;22.50;68.60;;;;;;10367035;28;20111;-66
2021/08/25 17:47:48;;;;;;;3.53;1.58;;;22.40;69.90;;;;;;10362724;28;20057;-66
2021/08/25 17:52:50;;;;;;;4.22;1.10;;;22.10;71.70;;;;;;10365659;28;20077;-66
2021/08/25 17:57:53;;;;;;;4.60;1.63;;;21.90;72.60;;;;;;10368895;28;20385;-65
2021/08/25 18:02:56;;;;;;;5.10;1.52;;;21.70;73.40;;;;;;10366104;28;20077;-66
2021/08/25 18:07:58;;;;;;;8.50;1.63;;;21.50;74.90;;;;;;10349377;28;20064;-66
2021/08/25 18:13:00;;;;;;;4.13;1.33;;;21.20;76.50;;;;;;10364403;28;20362;-66
2021/08/25 18:18:04;;;;;;;4.00;1.75;;;21.10;77.60;;;;;;10365622;28;20054;-66
2021/08/25 18:23:06;;;;;;;6.68;1.60;;;20.90;78.70;;;;;;10361471;28;20053;-67
2021/08/25 18:28:08;;;;;;;4.10;1.85;;;20.80;79.00;;;;;;10363216;28;20045;-66
2021/08/25 18:33:09;;;;;;;4.05;1.50;;;20.60;79.80;;;;;;10362241;28;20053;-66
2021/08/25 18:38:11;;;;;;;3.67;1.48;;;20.50;80.30;;;;;;10367165;28;20049;-66
2021/08/25 18:43:16;;;;;;;5.05;1.35;;;20.50;80.80;;;;;;10363665;28;20056;-66
2021/08/25 18:48:18;;;;;;;3.22;1.33;;;20.40;80.90;;;;;;10363425;28;20058;-66
2021/08/25 18:59:35;;;;;;;4.00;1.67;;;20.20;80.90;;;;;;10360651;28;20094;-62
2021/08/25 19:04:37;;;;;;;3.53;1.48;;;20.10;80.40;;;;;;10365845;28;20463;-62
2021/08/25 19:09:39;;;;;;;5.82;1.60;;;20.10;80.70;;;;;;10359507;28;20119;-62
2021/08/25 19:14:40;;;;;;;3.78;1.80;;;19.90;81.30;;;;;;10357294;28;20046;-62
2021/08/25 19:19:42;;;;;;;7.38;2.40;;;19.90;81.50;;;;;;10362269;28;20459;-62
2021/08/25 19:24:44;;;;;;;4.45;1.85;;;19.80;82.10;;;;;;10362649;28;20136;-63
2021/08/25 19:29:45;;;;;;;4.13;1.60;;;19.70;82.30;;;;;;10356528;28;20074;-62
2021/08/25 19:34:47;;;;;;;6.35;1.92;;;19.70;82.40;;;;;;10361328;28;20129;-62
2021/08/25 19:39:49;;;;;;;4.75;1.70;;;19.70;82.40;;;;;;10364834;28;20057;-62
2021/08/25 19:44:51;;;;;;;3.67;1.13;;;19.60;82.10;;;;;;10359459;28;20144;-61
2021/08/25 19:49:52;;;;;;;5.90;1.65;;;19.60;82.00;;;;;;10356961;28;20050;-61
2021/08/25 19:54:55;;;;;;;4.85;1.70;;;19.50;82.70;;;;;;10354566;28;20099;-61
2021/08/25 19:59:57;;;;;;;3.85;1.63;;;19.50;82.70;;;;;;10367606;28;20100;-61
2021/08/25 20:04:59;;;;;;;5.10;1.40;;;19.50;82.90;;;;;;10371043;28;20140;-61
2021/08/25 20:10:01;;;;;;;5.13;1.83;;;19.40;83.40;;;;;;10369067;28;21751;-61
2021/08/25 20:15:04;;;;;;;4.13;1.52;;;19.30;83.80;;;;;;10366526;28;20042;-61
2021/08/25 20:20:06;;;;;;;6.57;1.80;;;19.30;84.40;;;;;;10366829;28;25357;-62
2021/08/25 20:25:08;;;;;;;8.50;2.00;;;19.20;84.70;;;;;;10368716;28;20116;-62
2021/08/25 20:30:11;;;;;;;4.78;1.95;;;19.10;85.20;;;;;;10364183;28;20107;-62
2021/08/25 20:35:13;;;;;;;4.07;1.80;;;19.00;85.10;;;;;;10371299;28;20108;-62
2021/08/25 20:40:15;;;;;;;8.20;1.88;;;19.00;85.40;;;;;;10368359;28;20467;-62
2021/08/25 20:45:18;;;;;;;4.75;1.70;;;18.90;85.70;;;;;;10355163;28;20053;-62
2021/08/25 20:50:20;;;;;;;4.53;1.40;;;18.80;85.70;;;;;;10373977;28;20046;-61
2021/08/25 20:55:22;;;;;;;9.52;2.58;;;18.90;84.90;;;;;;10373235;28;20045;-62
2021/08/25 21:00:24;;;;;;;6.88;1.75;;;18.90;84.50;;;;;;10370599;28;20050;-62
2021/08/25 21:05:26;;;;;;;4.35;1.50;;;18.90;84.20;;;;;;10376224;28;20057;-62
2021/08/25 21:10:28;;;;;;;4.88;1.90;;;18.90;84.70;;;;;;10368577;28;20056;-63
2021/08/25 21:15:32;;;;;;;6.00;1.83;;;19.00;84.00;;;;;;10365764;28;20041;-62
2021/08/25 21:20:34;;;;;;;7.05;1.95;;;18.90;83.90;;;;;;10365222;28;20690;-61
2021/08/25 21:25:36;;;;;;;6.43;1.58;;;18.90;84.40;;;;;;10362095;28;20496;-62
2021/08/25 21:30:37;;;;;;;5.97;2.05;;;18.80;84.00;;;;;;10363948;28;20053;-61
2021/08/25 21:35:39;;;;;;;5.97;1.90;;;18.80;83.80;;;;;;10363247;28;20077;-62
2021/08/25 21:40:41;;;;;;;3.55;1.55;;;18.80;84.00;;;;;;10366641;28;20112;-61
2021/08/25 21:45:42;;;;;;;3.50;1.23;;;18.80;83.70;;;;;;10365188;28;20084;-61
2021/08/25 21:50:44;;;;;;;6.00;1.63;;;18.70;84.10;;;;;;10370031;28;20049;-61
2021/08/25 21:55:46;;;;;;;4.07;1.30;;;18.70;83.80;;;;;;10364872;28;20068;-61
2021/08/25 22:00:53;;;;;;;5.63;2.20;;;18.70;83.80;;;;;;10360443;28;20484;-60
2021/08/25 22:05:58;;;;;;;6.18;1.67;;;18.70;84.50;;;;;;10347041;28;20104;-60
2021/08/25 22:11:03;;;;;;;7.45;1.60;;;18.60;84.30;;;;;;10331308;28;20104;-61
2021/08/25 22:16:05;;;;;;;7.30;2.22;;;18.50;84.80;;;;;;10364899;28;20062;-61
2021/08/25 22:21:06;;;;;;;4.65;1.48;;;18.40;85.20;;;;;;10364447;28;21406;-61
2021/08/25 22:26:08;;;;;;;5.68;1.80;;;18.40;86.10;;;;;;10364460;28;20601;-61
2021/08/25 22:31:10;;;;;;;5.68;1.23;;;18.30;86.70;;;;;;10366926;28;20135;-61
2021/08/25 22:36:12;;;;;;;4.80;1.60;;;18.20;86.80;;;;;;10363868;28;20103;-60
2021/08/25 22:41:13;;;;;;;4.18;1.35;;;18.10;88.00;;;;;;10362103;28;20448;-60
2021/08/25 22:46:15;;;;;;;5.60;1.55;;;17.90;88.70;;;;;;10362022;28;20054;-61
2021/08/25 22:51:17;;;;;;;4.38;2.00;;;17.80;89.60;;;;;;10365955;28;20049;-61
2021/08/25 22:56:19;;;;;;;5.68;2.08;;;17.60;90.10;;;;;;10359643;28;20054;-62
2021/08/25 23:01:21;;;;;;;7.43;1.77;;;17.50;90.60;;;;;;10363694;28;20143;-61
2021/08/25 23:06:23;;;;;;;4.65;1.45;;;17.50;90.60;;;;;;10362448;28;20042;-62
2021/08/25 23:11:24;;;;;;;6.70;2.75;;;17.40;91.40;;;;;;10362096;28;20103;-62
2021/08/25 23:16:26;;;;;;;7.32;3.03;;;17.40;91.90;;;;;;10370093;28;20492;-62
2021/08/25 23:21:28;;;;;;;3.53;2.17;;;17.40;92.70;;;;;;10364952;28;20492;-62
2021/08/25 23:26:29;;;;;;;4.65;3.38;;;17.40;93.10;;;;;;10364200;28;20049;-62
2021/08/25 23:31:31;;;;;;;4.97;2.97;;;17.30;94.10;;;;;;10364992;28;20045;-61
2021/08/25 23:36:33;;;;;;;6.88;2.90;;;17.40;94.20;;;;;;10376368;28;20069;-61
2021/08/25 23:41:34;;;;;;;5.78;2.58;;;17.50;94.20;;;;;;10366273;28;20478;-62
2021/08/25 23:46:36;;;;;;;5.15;2.63;;;17.40;94.40;;;;;;10373948;28;20047;-61
2021/08/25 23:51:38;;;;;;;4.97;2.15;;;17.40;94.80;;;;;;10369420;28;20546;-61
2021/08/25 23:56:41;;;;;;;6.28;2.85;;;17.30;95.10;;;;;;10366119;28;20050;-61
